createdAt,value
2017-12-02T00:02:05.590Z,10.80
2017-12-02T00:04:33.678Z,8.70
2017-12-02T00:07:01.857Z,14.48
2017-12-02T00:09:29.926Z,10.80
2017-12-02T00:11:57.995Z,9.52
2017-12-02T00:14:26.066Z,11.98
2017-12-02T00:16:54.142Z,22.70
2017-12-02T00:19:22.309Z,22.13
2017-12-02T00:21:50.491Z,17.30
2017-12-02T00:24:18.558Z,14.15
2017-12-02T00:26:46.626Z,14.10
2017-12-02T00:29:14.716Z,10.90
2017-12-02T00:31:42.771Z,11.02
2017-12-02T00:34:10.863Z,11.70
2017-12-02T00:36:39.042Z,14.38
2017-12-02T00:39:07.210Z,11.32
2017-12-02T00:41:35.365Z,11.90
2017-12-02T00:44:03.449Z,13.32
2017-12-02T00:46:31.490Z,13.00
2017-12-02T00:48:59.565Z,11.00
2017-12-02T00:51:27.626Z,11.07
2017-12-02T00:53:56.466Z,12.98
2017-12-02T00:56:24.614Z,11.55
2017-12-02T00:58:53.819Z,11.77
2017-12-02T01:01:21.886Z,10.18
2017-12-02T01:03:50.710Z,10.52
2017-12-02T01:06:18.852Z,10.13
2017-12-02T01:11:16.038Z,12.30
2017-12-02T01:16:11.638Z,11.55
2017-12-02T01:43:16.070Z,13.00
2017-12-02T01:45:44.251Z,13.02
2017-12-02T01:48:13.102Z,12.50
2017-12-02T01:50:41.186Z,12.37
2017-12-02T01:53:09.242Z,11.25
2017-12-02T01:55:37.314Z,10.90
2017-12-02T01:58:05.495Z,12.95
2017-12-02T02:00:34.495Z,12.95
2017-12-02T02:03:02.578Z,13.48
2017-12-02T02:05:30.729Z,12.82
2017-12-02T02:07:58.913Z,13.98
2017-12-02T02:10:26.998Z,12.70
2017-12-02T02:42:29.348Z,12.75
2017-12-02T02:44:57.429Z,13.13
2017-12-02T02:47:25.494Z,14.63
2017-12-02T02:49:53.679Z,15.32
2017-12-02T02:52:21.803Z,12.95
2017-12-02T02:54:50.630Z,17.85
2017-12-02T02:57:18.699Z,13.10
2017-12-02T02:59:46.803Z,15.05
2017-12-02T03:58:55.802Z,12.15
2017-12-02T04:01:24.587Z,13.93
2017-12-02T04:03:52.660Z,12.27
2017-12-02T04:06:20.709Z,13.07
2017-12-02T04:08:48.790Z,14.80
2017-12-02T04:11:16.854Z,11.80
2017-12-02T04:13:44.936Z,15.35
2017-12-02T04:16:12.992Z,12.37
2017-12-02T04:18:41.062Z,14.32
2017-12-02T04:21:09.160Z,12.73
2017-12-02T04:23:37.221Z,13.40
2017-12-02T04:45:48.698Z,17.60
2017-12-02T04:48:17.528Z,17.23
2017-12-02T04:50:46.832Z,16.67
2017-12-02T04:53:14.895Z,14.30
2017-12-02T04:55:42.970Z,14.25
2017-12-02T04:58:11.055Z,15.70
2017-12-02T05:00:39.132Z,19.08
2017-12-02T05:03:07.205Z,14.98
2017-12-02T05:05:35.658Z,16.10
2017-12-02T05:08:03.751Z,17.27
2017-12-02T05:10:31.921Z,18.37
2017-12-02T05:13:00.410Z,19.93
2017-12-02T06:09:37.970Z,17.67
2017-12-02T06:12:06.042Z,15.13
2017-12-02T06:14:35.245Z,16.02
2017-12-02T06:17:03.306Z,21.05
2017-12-02T06:19:31.477Z,20.62
2017-12-02T06:22:00.373Z,16.33
2017-12-02T06:24:28.451Z,17.58
2017-12-02T06:26:56.638Z,19.50
2017-12-02T06:29:24.785Z,16.42
2017-12-02T06:31:52.977Z,21.77
2017-12-02T06:34:21.047Z,18.67
2017-12-02T06:36:49.506Z,17.33
2017-12-02T06:39:17.997Z,18.27
2017-12-02T06:41:46.141Z,18.10
2017-12-02T06:44:14.955Z,15.23
2017-12-02T06:46:43.029Z,18.02
2017-12-02T06:49:11.284Z,15.48
2017-12-02T06:51:39.385Z,20.00
2017-12-02T06:54:07.494Z,19.65
2017-12-02T06:56:35.554Z,20.05
2017-12-02T06:59:03.625Z,20.83
2017-12-02T07:01:31.710Z,20.85
2017-12-02T07:03:59.783Z,21.45
2017-12-02T07:06:27.841Z,22.67
2017-12-02T07:08:55.922Z,20.27
2017-12-02T07:11:24.007Z,22.10
2017-12-02T07:13:52.839Z,20.58
2017-12-02T07:16:21.310Z,18.83
2017-12-02T07:18:49.769Z,21.90
2017-12-02T07:21:18.604Z,23.77
2017-12-02T07:23:47.074Z,20.47
2017-12-02T07:26:15.133Z,20.12
2017-12-02T07:28:43.205Z,20.25
2017-12-02T07:31:11.658Z,19.73
2017-12-02T07:36:07.242Z,23.40
2017-12-02T07:38:35.426Z,24.15
2017-12-02T07:41:03.491Z,23.48
2017-12-02T07:43:31.570Z,24.60
2017-12-02T07:45:59.667Z,32.70
2017-12-02T07:48:27.810Z,36.40
2017-12-02T07:50:55.978Z,35.85
2017-12-02T07:53:24.049Z,34.40
2017-12-02T07:55:52.233Z,37.63
2017-12-02T07:58:20.815Z,31.57
2017-12-02T08:00:48.885Z,34.60
2017-12-02T08:03:16.954Z,28.47
2017-12-02T08:05:45.050Z,29.17
2017-12-02T08:08:13.202Z,38.75
2017-12-02T08:10:41.257Z,36.33
2017-12-02T08:13:09.354Z,27.80
2017-12-02T08:15:37.412Z,33.50
2017-12-02T08:18:05.582Z,26.02
2017-12-02T08:20:33.676Z,28.15
2017-12-02T08:23:02.126Z,29.05
2017-12-02T08:25:30.597Z,27.67
2017-12-02T08:27:58.704Z,33.03
2017-12-02T08:30:26.776Z,27.70
2017-12-02T08:32:55.702Z,32.92
2017-12-02T08:35:23.839Z,32.67
2017-12-02T08:37:51.930Z,34.58
2017-12-02T08:40:20.086Z,34.42
2017-12-02T08:42:48.151Z,32.15
2017-12-02T08:45:16.274Z,25.62
2017-12-02T08:47:45.103Z,40.50
2017-12-02T08:50:13.175Z,30.27
2017-12-02T08:52:41.258Z,29.30
2017-12-02T08:55:09.330Z,39.00
2017-12-02T08:57:37.512Z,33.83
2017-12-02T09:00:05.572Z,24.52
2017-12-02T09:02:33.659Z,26.02
2017-12-02T09:05:02.136Z,34.40
2017-12-02T09:07:30.207Z,25.05
2017-12-02T09:09:58.298Z,20.27
2017-12-02T09:12:26.854Z,23.75
2017-12-02T09:14:54.921Z,31.40
2017-12-02T09:17:22.978Z,27.50
2017-12-02T09:19:51.079Z,37.50
2017-12-02T09:22:19.146Z,27.67
2017-12-02T09:24:47.314Z,31.40
2017-12-02T09:27:15.390Z,26.63
2017-12-02T09:29:44.007Z,21.58
2017-12-02T09:32:12.142Z,23.98
2017-12-02T09:34:40.626Z,24.42
2017-12-02T09:37:08.701Z,23.00
2017-12-02T09:39:37.202Z,23.40
2017-12-02T09:42:05.277Z,25.08
2017-12-02T09:44:33.435Z,23.77
2017-12-02T09:47:02.950Z,29.73
2017-12-02T09:49:31.414Z,26.08
2017-12-02T09:51:59.490Z,26.00
2017-12-02T09:54:27.633Z,31.77
2017-12-02T09:56:55.738Z,49.85
2017-12-02T09:59:23.800Z,41.80
2017-12-02T10:01:51.984Z,49.55
2017-12-02T10:04:20.045Z,43.00
2017-12-02T12:00:04.619Z,45.78
2017-12-02T12:02:32.760Z,55.25
2017-12-02T12:05:00.930Z,51.78
2017-12-02T12:07:29.108Z,42.53
2017-12-02T12:09:57.170Z,39.28
2017-12-02T12:12:25.232Z,41.08
2017-12-02T12:41:58.816Z,42.70
2017-12-02T12:44:26.826Z,35.80
2017-12-02T13:01:42.904Z,37.47
2017-12-02T13:04:10.969Z,38.55
2017-12-02T13:06:39.136Z,33.73
2017-12-02T13:09:07.249Z,35.73
2017-12-02T13:11:35.310Z,37.03
2017-12-02T13:14:03.456Z,32.58
2017-12-02T13:16:31.643Z,34.05
2017-12-02T13:18:59.710Z,37.33
2017-12-02T13:21:28.190Z,35.60
2017-12-02T13:23:58.490Z,37.58
2017-12-02T13:26:27.080Z,35.30
2017-12-02T13:28:55.096Z,35.60
2017-12-02T13:31:23.460Z,33.90
2017-12-02T13:33:51.905Z,35.25
2017-12-02T13:36:20.102Z,34.33
2017-12-02T13:38:48.180Z,32.22
2017-12-02T13:53:34.774Z,49.80
2017-12-02T13:56:02.964Z,42.70
2017-12-02T13:58:31.023Z,45.37
2017-12-02T14:00:59.177Z,50.45
2017-12-02T14:03:27.246Z,38.07
2017-12-02T14:05:55.361Z,35.25
2017-12-02T14:08:23.616Z,33.90
2017-12-02T14:10:52.499Z,33.63
2017-12-02T14:13:21.330Z,33.10
2017-12-02T14:15:50.153Z,30.85
2017-12-02T14:18:18.231Z,32.70
2017-12-02T14:20:46.294Z,34.03
2017-12-02T14:23:14.366Z,32.08
2017-12-02T14:25:42.425Z,32.63
2017-12-02T14:28:11.351Z,29.45
2017-12-02T14:30:39.400Z,31.45
2017-12-02T14:33:07.895Z,30.88
2017-12-02T14:35:35.977Z,27.23
2017-12-02T14:47:54.101Z,29.17
2017-12-02T14:50:22.957Z,29.00
2017-12-02T14:52:51.013Z,28.05
2017-12-02T14:55:19.838Z,26.58
2017-12-02T14:57:48.030Z,28.67
2017-12-02T15:00:16.485Z,28.65
2017-12-02T15:02:44.545Z,26.92
2017-12-02T15:05:12.744Z,30.50
2017-12-02T15:07:40.836Z,28.23
2017-12-02T15:10:08.875Z,26.05
2017-12-02T15:12:37.471Z,27.17
2017-12-02T15:15:05.529Z,24.10
2017-12-02T15:17:33.594Z,25.45
2017-12-02T15:20:01.667Z,26.27
2017-12-02T15:22:29.759Z,28.60
2017-12-02T15:24:58.602Z,30.48
2017-12-02T15:27:27.529Z,29.87
2017-12-02T15:29:55.738Z,28.17
2017-12-02T15:32:23.894Z,32.70
2017-12-02T15:34:51.955Z,39.28
2017-12-02T15:37:20.042Z,42.67
2017-12-02T15:39:48.207Z,41.25
2017-12-02T15:42:16.261Z,39.75
2017-12-02T15:44:44.342Z,34.92
2017-12-02T15:47:12.426Z,34.50
2017-12-02T15:49:40.486Z,35.95
2017-12-02T15:52:08.554Z,36.30
2017-12-02T15:54:36.644Z,31.35
2017-12-02T15:57:04.719Z,32.53
2017-12-02T15:59:33.171Z,31.10
2017-12-02T16:02:01.237Z,33.47
2017-12-02T16:04:29.321Z,30.42
2017-12-02T16:06:57.381Z,36.45
2017-12-02T16:09:26.294Z,31.87
2017-12-02T16:11:54.461Z,32.67
2017-12-02T16:14:22.534Z,34.53
2017-12-02T16:16:50.614Z,35.90
2017-12-02T16:19:19.454Z,43.30
2017-12-02T16:21:48.282Z,46.47
2017-12-02T16:24:16.349Z,36.55
2017-12-02T16:26:44.430Z,29.92
2017-12-02T16:29:12.514Z,29.63
2017-12-02T16:31:40.678Z,30.98
2017-12-02T16:34:08.749Z,29.48
2017-12-02T16:36:36.921Z,32.33
2017-12-02T16:39:04.981Z,29.02
2017-12-02T16:41:33.039Z,34.88
2017-12-02T16:44:01.506Z,27.50
2017-12-02T16:46:30.339Z,26.62
2017-12-02T16:48:58.520Z,32.08
2017-12-02T16:51:26.603Z,34.25
2017-12-02T16:53:54.674Z,28.60
2017-12-02T16:56:22.733Z,33.25
2017-12-02T16:58:51.318Z,32.28
2017-12-02T17:01:19.377Z,31.05
2017-12-02T17:03:47.434Z,29.50
2017-12-02T17:06:15.918Z,34.97
2017-12-02T17:08:44.000Z,29.92
2017-12-02T17:11:12.063Z,33.90
2017-12-02T17:13:40.162Z,28.20
2017-12-02T17:18:35.893Z,33.90
2017-12-02T17:21:04.367Z,38.22
2017-12-02T17:23:32.438Z,34.42
2017-12-02T17:26:00.612Z,32.63
2017-12-02T17:28:28.695Z,30.88
2017-12-02T17:30:56.768Z,33.85
2017-12-02T17:33:24.858Z,29.08
2017-12-02T17:35:52.927Z,31.23
2017-12-02T17:38:20.994Z,31.10
2017-12-02T17:40:49.147Z,30.30
2017-12-02T17:43:17.326Z,30.65
2017-12-02T17:45:45.410Z,38.92
2017-12-02T17:48:13.474Z,37.30
2017-12-02T17:50:41.538Z,34.58
2017-12-02T17:53:09.711Z,33.50
2017-12-02T17:55:37.765Z,39.72
2017-12-02T17:58:06.271Z,29.55
2017-12-02T18:00:34.435Z,30.95
2017-12-02T18:03:02.608Z,28.60
2017-12-02T18:05:30.666Z,30.17
2017-12-02T18:07:58.770Z,41.75
2017-12-02T18:10:26.840Z,28.95
2017-12-02T18:12:55.727Z,25.42
2017-12-02T18:15:23.898Z,25.37
2017-12-02T18:17:51.957Z,24.02
2017-12-02T18:20:20.057Z,27.27
2017-12-02T18:22:48.120Z,31.40
2017-12-02T18:25:16.954Z,29.73
2017-12-02T18:27:45.889Z,28.50
2017-12-02T18:30:13.975Z,30.65
2017-12-02T18:32:42.046Z,31.02
2017-12-02T18:35:10.097Z,29.23
2017-12-02T18:37:38.933Z,32.80
2017-12-02T18:40:07.485Z,28.12
2017-12-02T18:42:35.533Z,29.90
2017-12-02T18:45:03.658Z,35.70
2017-12-02T18:47:31.801Z,35.70
2017-12-02T18:49:59.882Z,34.28
2017-12-02T18:52:27.962Z,29.37
2017-12-02T18:54:56.119Z,29.17
2017-12-02T18:57:24.189Z,31.35
2017-12-02T18:59:52.362Z,31.80
2017-12-02T19:02:20.442Z,34.80
2017-12-02T19:04:48.615Z,31.25
2017-12-02T19:07:16.674Z,34.95
2017-12-02T19:09:44.762Z,28.62
2017-12-02T19:12:12.834Z,38.15
2017-12-02T19:14:41.002Z,33.92
2017-12-02T19:17:09.164Z,35.30
2017-12-02T19:19:38.357Z,33.15
2017-12-02T19:22:06.446Z,36.95
2017-12-02T19:24:34.615Z,33.13
2017-12-02T19:27:02.794Z,33.67
2017-12-02T19:29:30.866Z,36.45
2017-12-02T19:44:18.369Z,33.67
2017-12-02T19:46:46.434Z,33.88
2017-12-02T19:49:14.531Z,34.28
2017-12-02T19:51:42.590Z,30.88
2017-12-02T19:54:10.760Z,32.05
2017-12-02T19:56:38.825Z,31.77
2017-12-02T19:59:06.897Z,30.20
2017-12-02T20:01:34.962Z,36.15
2017-12-02T20:04:03.048Z,32.75
2017-12-02T20:06:31.117Z,31.70
2017-12-02T20:08:59.210Z,32.83
2017-12-02T20:11:27.278Z,31.73
2017-12-02T20:13:55.737Z,31.23
2017-12-02T20:16:24.214Z,32.58
2017-12-02T20:18:52.297Z,34.15
2017-12-02T20:21:20.470Z,35.80
2017-12-02T20:23:48.530Z,35.22
2017-12-02T20:26:16.610Z,30.40
2017-12-02T20:28:44.691Z,30.23
2017-12-02T20:31:12.781Z,40.83
2017-12-02T20:33:40.862Z,31.55
2017-12-02T20:36:09.007Z,32.75
2017-12-02T20:38:37.187Z,37.50
2017-12-02T20:41:05.359Z,35.22
2017-12-02T20:43:33.487Z,30.02
2017-12-02T20:46:01.967Z,35.28
2017-12-02T20:48:30.802Z,28.77
2017-12-02T20:50:58.885Z,26.15
2017-12-02T20:53:26.961Z,32.45
2017-12-02T20:55:55.124Z,47.40
2017-12-02T20:58:23.185Z,28.98
2017-12-02T21:00:52.689Z,32.35
2017-12-02T21:03:20.792Z,35.08
2017-12-02T21:05:48.948Z,31.20
2017-12-02T21:08:17.108Z,26.52
2017-12-02T21:20:35.525Z,25.48
2017-12-02T21:23:03.598Z,25.77
2017-12-02T21:25:31.778Z,22.30
2017-12-02T21:27:59.940Z,26.30
2017-12-02T21:30:28.011Z,25.52
2017-12-02T21:32:56.065Z,26.52
2017-12-02T21:37:58.696Z,22.13
2017-12-02T21:40:26.865Z,22.20
2017-12-02T21:42:55.030Z,24.50
2017-12-02T21:45:23.214Z,22.45
2017-12-02T21:47:51.304Z,26.90
2017-12-02T21:50:19.453Z,22.35
2017-12-02T21:52:48.539Z,23.73
2017-12-02T21:55:17.058Z,25.62
2017-12-02T21:57:45.117Z,18.33
2017-12-02T22:00:13.191Z,18.55
2017-12-02T22:02:41.280Z,16.08
2017-12-02T22:05:09.417Z,18.60
2017-12-02T22:07:37.499Z,19.50
2017-12-02T22:10:05.558Z,23.35
2017-12-02T22:12:34.055Z,18.23
2017-12-02T22:15:02.225Z,19.25
2017-12-02T22:29:50.349Z,19.92
